sensor_id;sensor_type;location;lat;lon;timestamp;P1;durP1;ratioP1;P2;durP2;ratioP2
65831;SDS011;52593;42.648;23.332;2023-02-26T00:01:00;18.27;;;4.20;;
65831;SDS011;52593;42.648;23.332;2023-02-26T00:03:26;10.77;;;3.63;;
65831;SDS011;52593;42.648;23.332;2023-02-26T00:05:51;12.10;;;3.40;;
65831;SDS011;52593;42.648;23.332;2023-02-26T00:08:17;12.50;;;3.13;;
65831;SDS011;52593;42.648;23.332;2023-02-26T00:10:42;16.30;;;3.60;;
65831;SDS011;52593;42.648;23.332;2023-02-26T00:13:08;17.60;;;3.88;;
65831;SDS011;52593;42.648;23.332;2023-02-26T00:15:34;12.47;;;3.50;;
65831;SDS011;52593;42.648;23.332;2023-02-26T00:18:04;16.05;;;3.80;;
65831;SDS011;52593;42.648;23.332;2023-02-26T00:20:35;12.15;;;3.40;;
65831;SDS011;52593;42.648;23.332;2023-02-26T00:23:00;10.82;;;3.17;;
65831;SDS011;52593;42.648;23.332;2023-02-26T00:25:26;16.50;;;3.23;;
65831;SDS011;52593;42.648;23.332;2023-02-26T00:27:51;12.33;;;3.13;;
65831;SDS011;52593;42.648;23.332;2023-02-26T00:30:17;11.38;;;2.97;;
65831;SDS011;52593;42.648;23.332;2023-02-26T00:32:43;10.10;;;3.50;;
65831;SDS011;52593;42.648;23.332;2023-02-26T00:35:11;9.47;;;3.13;;
65831;SDS011;52593;42.648;23.332;2023-02-26T00:40:20;9.95;;;2.97;;
65831;SDS011;52593;42.648;23.332;2023-02-26T00:43:05;11.60;;;3.10;;
65831;SDS011;52593;42.648;23.332;2023-02-26T00:45:34;14.13;;;3.47;;
65831;SDS011;52593;42.648;23.332;2023-02-26T00:50:55;12.00;;;3.65;;
65831;SDS011;52593;42.648;23.332;2023-02-26T00:56:31;11.05;;;3.10;;
65831;SDS011;52593;42.648;23.332;2023-02-26T00:58:56;10.13;;;2.50;;
65831;SDS011;52593;42.648;23.332;2023-02-26T01:01:22;17.40;;;2.83;;
65831;SDS011;52593;42.648;23.332;2023-02-26T01:03:47;16.13;;;3.53;;
65831;SDS011;52593;42.648;23.332;2023-02-26T01:06:14;15.20;;;3.47;;
65831;SDS011;52593;42.648;23.332;2023-02-26T01:11:30;16.80;;;3.03;;
65831;SDS011;52593;42.648;23.332;2023-02-26T01:13:56;11.10;;;2.93;;
65831;SDS011;52593;42.648;23.332;2023-02-26T01:16:23;12.73;;;3.40;;
65831;SDS011;52593;42.648;23.332;2023-02-26T01:18:53;13.98;;;3.28;;
65831;SDS011;52593;42.648;23.332;2023-02-26T01:21:33;10.05;;;3.00;;
65831;SDS011;52593;42.648;23.332;2023-02-26T01:24:03;13.37;;;3.60;;
65831;SDS011;52593;42.648;23.332;2023-02-26T01:26:31;17.42;;;4.60;;
65831;SDS011;52593;42.648;23.332;2023-02-26T01:28:57;8.33;;;2.90;;
65831;SDS011;52593;42.648;23.332;2023-02-26T01:34:02;14.27;;;2.92;;
65831;SDS011;52593;42.648;23.332;2023-02-26T01:36:36;12.27;;;2.78;;
65831;SDS011;52593;42.648;23.332;2023-02-26T01:39:30;13.47;;;3.33;;
65831;SDS011;52593;42.648;23.332;2023-02-26T01:42:02;13.43;;;3.15;;
65831;SDS011;52593;42.648;23.332;2023-02-26T01:47:22;16.13;;;2.50;;
65831;SDS011;52593;42.648;23.332;2023-02-26T01:49:54;12.02;;;2.70;;
65831;SDS011;52593;42.648;23.332;2023-02-26T01:55:18;11.57;;;2.45;;
65831;SDS011;52593;42.648;23.332;2023-02-26T01:57:46;9.50;;;3.90;;
65831;SDS011;52593;42.648;23.332;2023-02-26T02:00:13;12.53;;;2.93;;
65831;SDS011;52593;42.648;23.332;2023-02-26T02:02:40;12.75;;;2.38;;
65831;SDS011;52593;42.648;23.332;2023-02-26T02:05:06;11.45;;;2.97;;
65831;SDS011;52593;42.648;23.332;2023-02-26T02:07:39;11.13;;;2.77;;
65831;SDS011;52593;42.648;23.332;2023-02-26T02:10:04;9.80;;;2.58;;
65831;SDS011;52593;42.648;23.332;2023-02-26T02:17:36;13.03;;;2.50;;
65831;SDS011;52593;42.648;23.332;2023-02-26T02:23:42;14.75;;;2.97;;
65831;SDS011;52593;42.648;23.332;2023-02-26T02:28:55;11.60;;;2.50;;
65831;SDS011;52593;42.648;23.332;2023-02-26T02:31:34;12.90;;;2.90;;
65831;SDS011;52593;42.648;23.332;2023-02-26T02:34:16;10.73;;;2.50;;
65831;SDS011;52593;42.648;23.332;2023-02-26T02:36:54;13.85;;;3.13;;
65831;SDS011;52593;42.648;23.332;2023-02-26T02:39:40;10.32;;;2.30;;
65831;SDS011;52593;42.648;23.332;2023-02-26T02:44:39;10.73;;;2.23;;
65831;SDS011;52593;42.648;23.332;2023-02-26T02:47:08;13.07;;;2.53;;
65831;SDS011;52593;42.648;23.332;2023-02-26T02:49:38;11.30;;;2.60;;
65831;SDS011;52593;42.648;23.332;2023-02-26T02:52:20;7.00;;;2.33;;
65831;SDS011;52593;42.648;23.332;2023-02-26T02:54:58;7.60;;;2.08;;
65831;SDS011;52593;42.648;23.332;2023-02-26T02:57:46;15.20;;;2.53;;
65831;SDS011;52593;42.648;23.332;2023-02-26T03:00:16;7.85;;;2.30;;
65831;SDS011;52593;42.648;23.332;2023-02-26T03:02:54;12.23;;;2.10;;
65831;SDS011;52593;42.648;23.332;2023-02-26T03:05:30;16.70;;;2.38;;
65831;SDS011;52593;42.648;23.332;2023-02-26T03:07:57;12.53;;;2.80;;
65831;SDS011;52593;42.648;23.332;2023-02-26T03:10:29;10.60;;;2.22;;
65831;SDS011;52593;42.648;23.332;2023-02-26T03:12:55;11.32;;;2.72;;
65831;SDS011;52593;42.648;23.332;2023-02-26T03:15:30;14.13;;;2.53;;
65831;SDS011;52593;42.648;23.332;2023-02-26T03:18:05;13.85;;;2.28;;
65831;SDS011;52593;42.648;23.332;2023-02-26T03:20:50;13.30;;;2.65;;
65831;SDS011;52593;42.648;23.332;2023-02-26T03:23:30;11.70;;;2.23;;
65831;SDS011;52593;42.648;23.332;2023-02-26T03:26:25;13.63;;;2.53;;
65831;SDS011;52593;42.648;23.332;2023-02-26T03:29:02;10.02;;;2.47;;
65831;SDS011;52593;42.648;23.332;2023-02-26T03:31:48;13.20;;;2.05;;
65831;SDS011;52593;42.648;23.332;2023-02-26T03:34:25;10.25;;;1.88;;
65831;SDS011;52593;42.648;23.332;2023-02-26T03:40:03;10.45;;;2.50;;
65831;SDS011;52593;42.648;23.332;2023-02-26T03:42:43;10.90;;;2.30;;
65831;SDS011;52593;42.648;23.332;2023-02-26T03:45:15;16.60;;;3.03;;
65831;SDS011;52593;42.648;23.332;2023-02-26T03:47:45;12.50;;;2.15;;
65831;SDS011;52593;42.648;23.332;2023-02-26T03:50:39;10.90;;;2.40;;
65831;SDS011;52593;42.648;23.332;2023-02-26T03:53:08;8.60;;;2.22;;
65831;SDS011;52593;42.648;23.332;2023-02-26T03:55:54;9.45;;;2.05;;
65831;SDS011;52593;42.648;23.332;2023-02-26T03:58:30;12.80;;;2.53;;
65831;SDS011;52593;42.648;23.332;2023-02-26T04:00:58;12.17;;;2.83;;
65831;SDS011;52593;42.648;23.332;2023-02-26T04:06:04;11.20;;;2.13;;
65831;SDS011;52593;42.648;23.332;2023-02-26T04:08:30;8.98;;;2.30;;
65831;SDS011;52593;42.648;23.332;2023-02-26T04:11:03;14.83;;;2.67;;
65831;SDS011;52593;42.648;23.332;2023-02-26T04:13:32;11.57;;;2.40;;
65831;SDS011;52593;42.648;23.332;2023-02-26T04:15:57;11.98;;;2.63;;
65831;SDS011;52593;42.648;23.332;2023-02-26T04:18:23;9.93;;;2.33;;
65831;SDS011;52593;42.648;23.332;2023-02-26T04:20:48;10.97;;;2.50;;
65831;SDS011;52593;42.648;23.332;2023-02-26T04:23:13;12.97;;;3.13;;
65831;SDS011;52593;42.648;23.332;2023-02-26T04:25:39;16.50;;;2.80;;
65831;SDS011;52593;42.648;23.332;2023-02-26T04:28:04;11.50;;;2.90;;
65831;SDS011;52593;42.648;23.332;2023-02-26T04:30:30;13.87;;;2.50;;
65831;SDS011;52593;42.648;23.332;2023-02-26T04:32:55;11.83;;;2.40;;
65831;SDS011;52593;42.648;23.332;2023-02-26T04:35:20;11.90;;;2.30;;
65831;SDS011;52593;42.648;23.332;2023-02-26T04:37:46;11.63;;;2.43;;
65831;SDS011;52593;42.648;23.332;2023-02-26T04:40:11;11.48;;;1.95;;
65831;SDS011;52593;42.648;23.332;2023-02-26T04:42:37;14.63;;;2.53;;
65831;SDS011;52593;42.648;23.332;2023-02-26T04:45:02;11.57;;;2.20;;
65831;SDS011;52593;42.648;23.332;2023-02-26T04:47:28;13.07;;;2.30;;
65831;SDS011;52593;42.648;23.332;2023-02-26T04:49:53;16.17;;;2.40;;
65831;SDS011;52593;42.648;23.332;2023-02-26T04:52:19;16.50;;;2.57;;
65831;SDS011;52593;42.648;23.332;2023-02-26T04:54:44;15.57;;;2.53;;
65831;SDS011;52593;42.648;23.332;2023-02-26T04:57:09;11.77;;;2.47;;
65831;SDS011;52593;42.648;23.332;2023-02-26T04:59:35;12.00;;;2.23;;
65831;SDS011;52593;42.648;23.332;2023-02-26T05:02:02;17.52;;;2.42;;
65831;SDS011;52593;42.648;23.332;2023-02-26T05:04:27;10.10;;;2.13;;
65831;SDS011;52593;42.648;23.332;2023-02-26T05:06:53;13.17;;;1.90;;
65831;SDS011;52593;42.648;23.332;2023-02-26T05:09:18;14.33;;;2.63;;
65831;SDS011;52593;42.648;23.332;2023-02-26T05:11:44;14.33;;;2.70;;
65831;SDS011;52593;42.648;23.332;2023-02-26T05:14:09;17.67;;;2.20;;
65831;SDS011;52593;42.648;23.332;2023-02-26T05:16:34;10.50;;;2.13;;
65831;SDS011;52593;42.648;23.332;2023-02-26T05:19:00;14.37;;;3.20;;
65831;SDS011;52593;42.648;23.332;2023-02-26T05:21:25;11.50;;;2.60;;
65831;SDS011;52593;42.648;23.332;2023-02-26T05:23:50;16.90;;;2.40;;
65831;SDS011;52593;42.648;23.332;2023-02-26T05:26:16;18.97;;;2.30;;
65831;SDS011;52593;42.648;23.332;2023-02-26T05:28:41;21.20;;;2.43;;
65831;SDS011;52593;42.648;23.332;2023-02-26T05:31:09;12.95;;;2.25;;
65831;SDS011;52593;42.648;23.332;2023-02-26T05:33:35;12.85;;;2.35;;
65831;SDS011;52593;42.648;23.332;2023-02-26T05:36:01;14.10;;;2.30;;
65831;SDS011;52593;42.648;23.332;2023-02-26T05:38:26;12.10;;;2.40;;
65831;SDS011;52593;42.648;23.332;2023-02-26T05:40:54;15.03;;;2.33;;
65831;SDS011;52593;42.648;23.332;2023-02-26T05:43:21;11.90;;;1.83;;
65831;SDS011;52593;42.648;23.332;2023-02-26T05:45:48;16.45;;;2.47;;
65831;SDS011;52593;42.648;23.332;2023-02-26T05:48:14;17.50;;;2.33;;
65831;SDS011;52593;42.648;23.332;2023-02-26T05:50:39;15.77;;;2.40;;
65831;SDS011;52593;42.648;23.332;2023-02-26T05:53:05;11.90;;;2.07;;
65831;SDS011;52593;42.648;23.332;2023-02-26T05:55:30;14.07;;;2.23;;
65831;SDS011;52593;42.648;23.332;2023-02-26T05:57:56;20.80;;;2.47;;
65831;SDS011;52593;42.648;23.332;2023-02-26T06:00:21;16.00;;;2.20;;
65831;SDS011;52593;42.648;23.332;2023-02-26T06:02:46;12.07;;;2.10;;
65831;SDS011;52593;42.648;23.332;2023-02-26T06:05:12;15.27;;;2.23;;
65831;SDS011;52593;42.648;23.332;2023-02-26T06:07:38;15.13;;;2.33;;
65831;SDS011;52593;42.648;23.332;2023-02-26T06:10:03;14.90;;;2.07;;
65831;SDS011;52593;42.648;23.332;2023-02-26T06:12:29;17.13;;;2.55;;
65831;SDS011;52593;42.648;23.332;2023-02-26T06:14:54;15.93;;;2.33;;
65831;SDS011;52593;42.648;23.332;2023-02-26T06:17:20;12.87;;;1.73;;
65831;SDS011;52593;42.648;23.332;2023-02-26T06:19:45;11.93;;;2.00;;
65831;SDS011;52593;42.648;23.332;2023-02-26T06:22:11;14.03;;;1.90;;
65831;SDS011;52593;42.648;23.332;2023-02-26T06:24:36;12.40;;;2.00;;
65831;SDS011;52593;42.648;23.332;2023-02-26T06:27:01;19.20;;;2.30;;
65831;SDS011;52593;42.648;23.332;2023-02-26T06:29:27;15.37;;;2.10;;
65831;SDS011;52593;42.648;23.332;2023-02-26T06:31:52;14.20;;;2.40;;
65831;SDS011;52593;42.648;23.332;2023-02-26T06:34:17;13.50;;;2.90;;
65831;SDS011;52593;42.648;23.332;2023-02-26T06:36:43;17.50;;;2.15;;
65831;SDS011;52593;42.648;23.332;2023-02-26T06:39:09;16.53;;;2.27;;
65831;SDS011;52593;42.648;23.332;2023-02-26T06:41:36;17.85;;;2.38;;
65831;SDS011;52593;42.648;23.332;2023-02-26T06:44:02;12.77;;;2.20;;
65831;SDS011;52593;42.648;23.332;2023-02-26T06:46:27;9.30;;;1.50;;
65831;SDS011;52593;42.648;23.332;2023-02-26T06:48:53;15.97;;;2.50;;
65831;SDS011;52593;42.648;23.332;2023-02-26T06:51:18;15.35;;;2.20;;
65831;SDS011;52593;42.648;23.332;2023-02-26T06:53:44;11.43;;;2.07;;
65831;SDS011;52593;42.648;23.332;2023-02-26T06:56:09;16.03;;;2.60;;
65831;SDS011;52593;42.648;23.332;2023-02-26T06:58:35;17.97;;;2.70;;
65831;SDS011;52593;42.648;23.332;2023-02-26T07:01:01;13.43;;;2.33;;
65831;SDS011;52593;42.648;23.332;2023-02-26T07:03:28;20.08;;;2.47;;
65831;SDS011;52593;42.648;23.332;2023-02-26T07:05:54;20.00;;;2.77;;
65831;SDS011;52593;42.648;23.332;2023-02-26T07:08:20;19.93;;;3.40;;
65831;SDS011;52593;42.648;23.332;2023-02-26T07:10:45;14.13;;;1.88;;
65831;SDS011;52593;42.648;23.332;2023-02-26T07:13:13;20.73;;;2.07;;
65831;SDS011;52593;42.648;23.332;2023-02-26T07:15:39;16.58;;;2.70;;
65831;SDS011;52593;42.648;23.332;2023-02-26T07:18:04;16.20;;;2.22;;
65831;SDS011;52593;42.648;23.332;2023-02-26T07:20:30;12.67;;;2.20;;
65831;SDS011;52593;42.648;23.332;2023-02-26T07:22:56;16.90;;;3.00;;
65831;SDS011;52593;42.648;23.332;2023-02-26T07:25:22;21.37;;;2.70;;
65831;SDS011;52593;42.648;23.332;2023-02-26T07:27:48;14.52;;;2.25;;
65831;SDS011;52593;42.648;23.332;2023-02-26T07:30:14;16.47;;;2.40;;
65831;SDS011;52593;42.648;23.332;2023-02-26T07:32:40;16.50;;;2.22;;
65831;SDS011;52593;42.648;23.332;2023-02-26T07:35:05;13.20;;;2.37;;
65831;SDS011;52593;42.648;23.332;2023-02-26T07:37:31;15.23;;;2.67;;
65831;SDS011;52593;42.648;23.332;2023-02-26T07:39:56;14.37;;;1.87;;
65831;SDS011;52593;42.648;23.332;2023-02-26T07:42:22;13.63;;;2.40;;
65831;SDS011;52593;42.648;23.332;2023-02-26T07:44:47;14.57;;;2.43;;
65831;SDS011;52593;42.648;23.332;2023-02-26T07:47:13;15.70;;;2.50;;
65831;SDS011;52593;42.648;23.332;2023-02-26T07:49:38;15.97;;;2.00;;
65831;SDS011;52593;42.648;23.332;2023-02-26T07:52:04;20.60;;;2.40;;
65831;SDS011;52593;42.648;23.332;2023-02-26T07:54:32;26.00;;;3.20;;
65831;SDS011;52593;42.648;23.332;2023-02-26T07:56:58;12.93;;;1.80;;
65831;SDS011;52593;42.648;23.332;2023-02-26T07:59:23;16.38;;;2.15;;
65831;SDS011;52593;42.648;23.332;2023-02-26T08:01:49;14.47;;;2.27;;
65831;SDS011;52593;42.648;23.332;2023-02-26T08:04:14;14.40;;;2.40;;
65831;SDS011;52593;42.648;23.332;2023-02-26T08:06:40;15.93;;;2.00;;
65831;SDS011;52593;42.648;23.332;2023-02-26T08:09:05;17.07;;;2.20;;
65831;SDS011;52593;42.648;23.332;2023-02-26T08:11:30;12.02;;;2.17;;
65831;SDS011;52593;42.648;23.332;2023-02-26T08:14:03;11.23;;;2.03;;
65831;SDS011;52593;42.648;23.332;2023-02-26T08:16:29;8.00;;;2.15;;
65831;SDS011;52593;42.648;23.332;2023-02-26T08:18:55;20.37;;;2.57;;
65831;SDS011;52593;42.648;23.332;2023-02-26T08:21:20;15.40;;;2.00;;
65831;SDS011;52593;42.648;23.332;2023-02-26T08:23:45;17.30;;;2.37;;
65831;SDS011;52593;42.648;23.332;2023-02-26T08:26:11;15.57;;;2.53;;
65831;SDS011;52593;42.648;23.332;2023-02-26T08:28:38;20.00;;;2.35;;
65831;SDS011;52593;42.648;23.332;2023-02-26T08:31:03;16.13;;;2.90;;
65831;SDS011;52593;42.648;23.332;2023-02-26T08:33:30;13.95;;;2.10;;
65831;SDS011;52593;42.648;23.332;2023-02-26T08:35:55;14.55;;;2.33;;
65831;SDS011;52593;42.648;23.332;2023-02-26T08:38:23;16.33;;;1.95;;
65831;SDS011;52593;42.648;23.332;2023-02-26T08:40:51;16.17;;;2.47;;
65831;SDS011;52593;42.648;23.332;2023-02-26T08:43:17;15.57;;;2.37;;
65831;SDS011;52593;42.648;23.332;2023-02-26T08:45:44;14.68;;;3.15;;
65831;SDS011;52593;42.648;23.332;2023-02-26T08:48:10;15.43;;;2.07;;
65831;SDS011;52593;42.648;23.332;2023-02-26T08:50:35;12.95;;;2.20;;
65831;SDS011;52593;42.648;23.332;2023-02-26T08:53:01;14.70;;;3.07;;
65831;SDS011;52593;42.648;23.332;2023-02-26T08:55:26;12.03;;;2.50;;
65831;SDS011;52593;42.648;23.332;2023-02-26T08:57:52;16.33;;;2.95;;
65831;SDS011;52593;42.648;23.332;2023-02-26T09:00:17;20.50;;;2.40;;
65831;SDS011;52593;42.648;23.332;2023-02-26T09:02:43;11.95;;;2.25;;
65831;SDS011;52593;42.648;23.332;2023-02-26T09:05:09;18.67;;;2.33;;
65831;SDS011;52593;42.648;23.332;2023-02-26T09:07:36;14.45;;;1.75;;
65831;SDS011;52593;42.648;23.332;2023-02-26T09:10:02;11.68;;;1.98;;
65831;SDS011;52593;42.648;23.332;2023-02-26T09:12:29;9.77;;;2.20;;
65831;SDS011;52593;42.648;23.332;2023-02-26T09:14:54;14.33;;;2.80;;
65831;SDS011;52593;42.648;23.332;2023-02-26T09:17:22;14.70;;;2.28;;
65831;SDS011;52593;42.648;23.332;2023-02-26T09:19:49;15.25;;;2.75;;
65831;SDS011;52593;42.648;23.332;2023-02-26T09:22:14;12.17;;;1.83;;
65831;SDS011;52593;42.648;23.332;2023-02-26T09:24:40;19.48;;;2.08;;
65831;SDS011;52593;42.648;23.332;2023-02-26T09:27:06;16.97;;;2.00;;
65831;SDS011;52593;42.648;23.332;2023-02-26T09:29:31;11.53;;;2.47;;
65831;SDS011;52593;42.648;23.332;2023-02-26T09:31:57;17.10;;;2.80;;
65831;SDS011;52593;42.648;23.332;2023-02-26T09:34:22;20.73;;;2.75;;
65831;SDS011;52593;42.648;23.332;2023-02-26T09:36:47;14.27;;;2.50;;
65831;SDS011;52593;42.648;23.332;2023-02-26T09:39:13;12.90;;;2.30;;
65831;SDS011;52593;42.648;23.332;2023-02-26T09:41:40;14.30;;;2.60;;
65831;SDS011;52593;42.648;23.332;2023-02-26T09:44:23;15.18;;;2.92;;
65831;SDS011;52593;42.648;23.332;2023-02-26T09:47:04;15.95;;;2.85;;
65831;SDS011;52593;42.648;23.332;2023-02-26T09:49:39;15.30;;;3.05;;
65831;SDS011;52593;42.648;23.332;2023-02-26T09:52:30;17.53;;;3.00;;
65831;SDS011;52593;42.648;23.332;2023-02-26T09:55:21;18.05;;;2.90;;
65831;SDS011;52593;42.648;23.332;2023-02-26T09:57:53;14.38;;;3.38;;
65831;SDS011;52593;42.648;23.332;2023-02-26T10:00:28;24.27;;;3.00;;
65831;SDS011;52593;42.648;23.332;2023-02-26T10:05:43;15.23;;;3.10;;
65831;SDS011;52593;42.648;23.332;2023-02-26T10:08:17;18.27;;;3.45;;
65831;SDS011;52593;42.648;23.332;2023-02-26T10:10:53;13.88;;;3.28;;
65831;SDS011;52593;42.648;23.332;2023-02-26T10:16:08;16.17;;;3.15;;
65831;SDS011;52593;42.648;23.332;2023-02-26T10:18:41;15.83;;;2.73;;
65831;SDS011;52593;42.648;23.332;2023-02-26T10:21:14;12.07;;;2.30;;
65831;SDS011;52593;42.648;23.332;2023-02-26T10:23:57;16.58;;;2.72;;
65831;SDS011;52593;42.648;23.332;2023-02-26T10:26:29;19.15;;;2.60;;
65831;SDS011;52593;42.648;23.332;2023-02-26T10:31:53;16.47;;;2.70;;
65831;SDS011;52593;42.648;23.332;2023-02-26T10:34:38;9.77;;;2.20;;
65831;SDS011;52593;42.648;23.332;2023-02-26T10:42:55;11.63;;;2.13;;
65831;SDS011;52593;42.648;23.332;2023-02-26T10:50:55;12.38;;;2.47;;
65831;SDS011;52593;42.648;23.332;2023-02-26T10:53:25;10.68;;;2.17;;
65831;SDS011;52593;42.648;23.332;2023-02-26T10:58:24;7.40;;;1.67;;
65831;SDS011;52593;42.648;23.332;2023-02-26T11:00:51;11.57;;;2.28;;
65831;SDS011;52593;42.648;23.332;2023-02-26T11:03:20;11.52;;;1.92;;
65831;SDS011;52593;42.648;23.332;2023-02-26T11:05:57;14.35;;;2.58;;
65831;SDS011;52593;42.648;23.332;2023-02-26T11:08:25;10.97;;;2.00;;
65831;SDS011;52593;42.648;23.332;2023-02-26T11:10:56;14.43;;;2.50;;
65831;SDS011;52593;42.648;23.332;2023-02-26T11:13:24;12.80;;;2.33;;
65831;SDS011;52593;42.648;23.332;2023-02-26T11:15:52;9.00;;;2.10;;
65831;SDS011;52593;42.648;23.332;2023-02-26T11:18:25;15.98;;;2.50;;
65831;SDS011;52593;42.648;23.332;2023-02-26T11:20:55;11.63;;;2.43;;
65831;SDS011;52593;42.648;23.332;2023-02-26T11:23:23;10.15;;;2.30;;
65831;SDS011;52593;42.648;23.332;2023-02-26T11:26:03;12.13;;;2.17;;
65831;SDS011;52593;42.648;23.332;2023-02-26T11:28:36;11.75;;;2.50;;
65831;SDS011;52593;42.648;23.332;2023-02-26T11:31:08;12.13;;;2.58;;
65831;SDS011;52593;42.648;23.332;2023-02-26T11:33:39;18.20;;;2.97;;
65831;SDS011;52593;42.648;23.332;2023-02-26T11:36:09;13.43;;;2.83;;
65831;SDS011;52593;42.648;23.332;2023-02-26T11:38:38;14.75;;;3.00;;
65831;SDS011;52593;42.648;23.332;2023-02-26T11:41:05;15.85;;;2.90;;
65831;SDS011;52593;42.648;23.332;2023-02-26T11:43:54;13.32;;;2.92;;
65831;SDS011;52593;42.648;23.332;2023-02-26T11:46:26;15.57;;;2.97;;
65831;SDS011;52593;42.648;23.332;2023-02-26T11:48:52;12.27;;;3.55;;
65831;SDS011;52593;42.648;23.332;2023-02-26T11:51:22;15.63;;;2.92;;
65831;SDS011;52593;42.648;23.332;2023-02-26T11:53:55;17.80;;;3.20;;
65831;SDS011;52593;42.648;23.332;2023-02-26T11:56:33;17.30;;;3.40;;
65831;SDS011;52593;42.648;23.332;2023-02-26T11:59:15;14.87;;;3.03;;
65831;SDS011;52593;42.648;23.332;2023-02-26T12:01:42;14.32;;;3.05;;
65831;SDS011;52593;42.648;23.332;2023-02-26T12:04:09;11.20;;;3.17;;
65831;SDS011;52593;42.648;23.332;2023-02-26T12:06:36;13.43;;;2.90;;
65831;SDS011;52593;42.648;23.332;2023-02-26T12:09:02;13.25;;;3.45;;
65831;SDS011;52593;42.648;23.332;2023-02-26T12:11:41;16.30;;;3.88;;
65831;SDS011;52593;42.648;23.332;2023-02-26T12:14:34;12.10;;;2.87;;
65831;SDS011;52593;42.648;23.332;2023-02-26T12:38:28;18.52;;;5.18;;
65831;SDS011;52593;42.648;23.332;2023-02-26T12:43:32;19.90;;;4.30;;
65831;SDS011;52593;42.648;23.332;2023-02-26T12:59:18;16.17;;;3.08;;
65831;SDS011;52593;42.648;23.332;2023-02-26T13:12:37;13.87;;;3.00;;
65831;SDS011;52593;42.648;23.332;2023-02-26T13:20:53;14.90;;;3.28;;
65831;SDS011;52593;42.648;23.332;2023-02-26T13:23:24;15.27;;;3.03;;
65831;SDS011;52593;42.648;23.332;2023-02-26T13:26:01;12.02;;;3.60;;
65831;SDS011;52593;42.648;23.332;2023-02-26T13:31:40;19.20;;;3.37;;
65831;SDS011;52593;42.648;23.332;2023-02-26T13:34:14;12.95;;;3.10;;
65831;SDS011;52593;42.648;23.332;2023-02-26T13:36:45;15.40;;;3.92;;
65831;SDS011;52593;42.648;23.332;2023-02-26T13:47:33;16.67;;;3.20;;
65831;SDS011;52593;42.648;23.332;2023-02-26T13:55:48;17.50;;;3.20;;
65831;SDS011;52593;42.648;23.332;2023-02-26T14:00:57;20.00;;;3.45;;
65831;SDS011;52593;42.648;23.332;2023-02-26T14:06:08;15.52;;;3.17;;
65831;SDS011;52593;42.648;23.332;2023-02-26T14:08:48;17.52;;;3.70;;
65831;SDS011;52593;42.648;23.332;2023-02-26T14:14:18;25.40;;;4.40;;
65831;SDS011;52593;42.648;23.332;2023-02-26T14:32:47;22.58;;;3.17;;
65831;SDS011;52593;42.648;23.332;2023-02-26T14:37:42;21.10;;;4.37;;
65831;SDS011;52593;42.648;23.332;2023-02-26T14:40:17;23.40;;;4.05;;
65831;SDS011;52593;42.648;23.332;2023-02-26T14:45:26;25.25;;;4.15;;
65831;SDS011;52593;42.648;23.332;2023-02-26T14:47:55;22.38;;;3.58;;
65831;SDS011;52593;42.648;23.332;2023-02-26T14:50:23;26.30;;;3.93;;
65831;SDS011;52593;42.648;23.332;2023-02-26T14:58:25;30.20;;;3.63;;
65831;SDS011;52593;42.648;23.332;2023-02-26T15:09:15;23.70;;;3.60;;
65831;SDS011;52593;42.648;23.332;2023-02-26T15:14:16;23.73;;;4.03;;
65831;SDS011;52593;42.648;23.332;2023-02-26T15:22:45;21.55;;;4.13;;
65831;SDS011;52593;42.648;23.332;2023-02-26T15:28:09;29.58;;;4.97;;
65831;SDS011;52593;42.648;23.332;2023-02-26T15:30:47;22.63;;;4.17;;
65831;SDS011;52593;42.648;23.332;2023-02-26T15:33:14;24.83;;;4.75;;
65831;SDS011;52593;42.648;23.332;2023-02-26T15:35:43;26.08;;;4.78;;
65831;SDS011;52593;42.648;23.332;2023-02-26T15:38:09;27.30;;;4.38;;
65831;SDS011;52593;42.648;23.332;2023-02-26T15:40:35;22.57;;;4.20;;
65831;SDS011;52593;42.648;23.332;2023-02-26T15:43:01;22.17;;;4.63;;
65831;SDS011;52593;42.648;23.332;2023-02-26T15:45:33;28.80;;;4.93;;
65831;SDS011;52593;42.648;23.332;2023-02-26T15:50:59;26.40;;;4.27;;
65831;SDS011;52593;42.648;23.332;2023-02-26T15:55:53;19.70;;;3.93;;
65831;SDS011;52593;42.648;23.332;2023-02-26T15:58:28;22.95;;;4.25;;
65831;SDS011;52593;42.648;23.332;2023-02-26T16:00:59;23.55;;;4.00;;
65831;SDS011;52593;42.648;23.332;2023-02-26T16:03:27;25.63;;;3.92;;
65831;SDS011;52593;42.648;23.332;2023-02-26T16:05:55;26.45;;;4.30;;
65831;SDS011;52593;42.648;23.332;2023-02-26T16:08:22;26.40;;;3.73;;
65831;SDS011;52593;42.648;23.332;2023-02-26T16:10:48;21.30;;;3.97;;
65831;SDS011;52593;42.648;23.332;2023-02-26T16:13:16;17.48;;;4.50;;
65831;SDS011;52593;42.648;23.332;2023-02-26T16:15:49;23.27;;;6.70;;
65831;SDS011;52593;42.648;23.332;2023-02-26T16:18:15;17.50;;;4.07;;
65831;SDS011;52593;42.648;23.332;2023-02-26T16:20:46;23.83;;;5.07;;
65831;SDS011;52593;42.648;23.332;2023-02-26T16:23:17;22.05;;;3.83;;
65831;SDS011;52593;42.648;23.332;2023-02-26T16:25:52;20.70;;;4.10;;
65831;SDS011;52593;42.648;23.332;2023-02-26T16:28:24;26.30;;;4.13;;
65831;SDS011;52593;42.648;23.332;2023-02-26T16:30:54;20.05;;;4.45;;
65831;SDS011;52593;42.648;23.332;2023-02-26T16:33:24;23.55;;;4.45;;
65831;SDS011;52593;42.648;23.332;2023-02-26T16:35:55;25.20;;;6.78;;
65831;SDS011;52593;42.648;23.332;2023-02-26T16:38:31;33.80;;;9.63;;
65831;SDS011;52593;42.648;23.332;2023-02-26T16:41:20;20.52;;;5.72;;
65831;SDS011;52593;42.648;23.332;2023-02-26T16:43:49;20.92;;;3.90;;
65831;SDS011;52593;42.648;23.332;2023-02-26T16:46:59;19.20;;;3.70;;
65831;SDS011;52593;42.648;23.332;2023-02-26T16:49:11;20.08;;;4.40;;
65831;SDS011;52593;42.648;23.332;2023-02-26T16:51:44;28.07;;;6.00;;
65831;SDS011;52593;42.648;23.332;2023-02-26T16:54:16;21.92;;;4.57;;
65831;SDS011;52593;42.648;23.332;2023-02-26T16:56:45;16.30;;;4.75;;
65831;SDS011;52593;42.648;23.332;2023-02-26T16:59:25;21.98;;;4.32;;
65831;SDS011;52593;42.648;23.332;2023-02-26T17:01:56;27.45;;;4.53;;
65831;SDS011;52593;42.648;23.332;2023-02-26T17:04:26;15.80;;;4.20;;
65831;SDS011;52593;42.648;23.332;2023-02-26T17:06:54;22.75;;;4.30;;
65831;SDS011;52593;42.648;23.332;2023-02-26T17:09:38;22.33;;;4.60;;
65831;SDS011;52593;42.648;23.332;2023-02-26T17:12:14;23.70;;;4.45;;
65831;SDS011;52593;42.648;23.332;2023-02-26T17:14:43;19.67;;;4.70;;
65831;SDS011;52593;42.648;23.332;2023-02-26T17:17:10;23.03;;;4.40;;
65831;SDS011;52593;42.648;23.332;2023-02-26T17:19:36;20.77;;;4.07;;
65831;SDS011;52593;42.648;23.332;2023-02-26T17:22:02;17.93;;;3.03;;
65831;SDS011;52593;42.648;23.332;2023-02-26T17:24:30;23.70;;;4.13;;
65831;SDS011;52593;42.648;23.332;2023-02-26T17:27:08;22.23;;;4.57;;
65831;SDS011;52593;42.648;23.332;2023-02-26T17:29:37;19.90;;;4.07;;
65831;SDS011;52593;42.648;23.332;2023-02-26T17:32:05;23.58;;;4.10;;
65831;SDS011;52593;42.648;23.332;2023-02-26T17:34:35;22.30;;;3.73;;
65831;SDS011;52593;42.648;23.332;2023-02-26T17:37:01;27.00;;;4.53;;
65831;SDS011;52593;42.648;23.332;2023-02-26T17:39:31;17.63;;;3.97;;
65831;SDS011;52593;42.648;23.332;2023-02-26T17:41:57;15.88;;;4.40;;
65831;SDS011;52593;42.648;23.332;2023-02-26T17:44:22;20.90;;;4.17;;
65831;SDS011;52593;42.648;23.332;2023-02-26T17:46:47;23.03;;;4.20;;